sensor_id;sensor_type;location;lat;lon;timestamp;P1;durP1;ratioP1;P2;durP2;ratioP2
35847;SDS011;22332;51.954;20.118;2024-02-21T00:03:02;6.00;;;2.50;;
35847;SDS011;22332;51.954;20.118;2024-02-21T00:06:08;9.30;;;3.00;;
35847;SDS011;22332;51.954;20.118;2024-02-21T00:09:13;8.20;;;3.00;;
35847;SDS011;22332;51.954;20.118;2024-02-21T00:12:19;9.60;;;3.20;;
35847;SDS011;22332;51.954;20.118;2024-02-21T00:15:24;12.30;;;4.30;;
35847;SDS011;22332;51.954;20.118;2024-02-21T00:18:30;21.40;;;10.80;;
35847;SDS011;22332;51.954;20.118;2024-02-21T00:21:36;8.20;;;3.70;;
35847;SDS011;22332;51.954;20.118;2024-02-21T00:24:41;7.80;;;3.20;;
35847;SDS011;22332;51.954;20.118;2024-02-21T00:27:47;10.70;;;4.30;;
35847;SDS011;22332;51.954;20.118;2024-02-21T00:30:52;14.20;;;4.50;;
35847;SDS011;22332;51.954;20.118;2024-02-21T00:33:58;10.60;;;3.70;;
35847;SDS011;22332;51.954;20.118;2024-02-21T00:37:03;11.70;;;4.60;;
35847;SDS011;22332;51.954;20.118;2024-02-21T00:40:10;11.50;;;4.50;;
35847;SDS011;22332;51.954;20.118;2024-02-21T00:43:19;9.10;;;3.90;;
35847;SDS011;22332;51.954;20.118;2024-02-21T00:46:26;6.10;;;3.70;;
35847;SDS011;22332;51.954;20.118;2024-02-21T00:49:32;8.20;;;4.20;;
35847;SDS011;22332;51.954;20.118;2024-02-21T00:52:37;10.40;;;4.40;;
35847;SDS011;22332;51.954;20.118;2024-02-21T00:55:43;10.40;;;4.70;;
35847;SDS011;22332;51.954;20.118;2024-02-21T00:58:48;9.30;;;4.40;;
35847;SDS011;22332;51.954;20.118;2024-02-21T01:01:54;11.70;;;4.80;;
35847;SDS011;22332;51.954;20.118;2024-02-21T01:05:00;12.50;;;5.10;;
35847;SDS011;22332;51.954;20.118;2024-02-21T01:08:06;12.90;;;5.00;;
35847;SDS011;22332;51.954;20.118;2024-02-21T01:11:12;10.80;;;5.20;;
35847;SDS011;22332;51.954;20.118;2024-02-21T01:14:17;12.10;;;5.20;;
35847;SDS011;22332;51.954;20.118;2024-02-21T01:17:23;14.30;;;5.70;;
35847;SDS011;22332;51.954;20.118;2024-02-21T01:20:28;13.30;;;6.00;;
35847;SDS011;22332;51.954;20.118;2024-02-21T01:23:34;14.40;;;6.40;;
35847;SDS011;22332;51.954;20.118;2024-02-21T01:26:40;12.80;;;5.30;;
35847;SDS011;22332;51.954;20.118;2024-02-21T01:29:45;12.60;;;4.60;;
35847;SDS011;22332;51.954;20.118;2024-02-21T01:32:52;11.50;;;6.00;;
35847;SDS011;22332;51.954;20.118;2024-02-21T01:35:58;15.10;;;6.00;;
35847;SDS011;22332;51.954;20.118;2024-02-21T01:39:03;14.10;;;6.20;;
35847;SDS011;22332;51.954;20.118;2024-02-21T01:42:09;12.90;;;6.10;;
35847;SDS011;22332;51.954;20.118;2024-02-21T01:45:15;13.20;;;6.80;;
35847;SDS011;22332;51.954;20.118;2024-02-21T01:48:20;12.50;;;6.10;;
35847;SDS011;22332;51.954;20.118;2024-02-21T01:51:27;14.90;;;6.60;;
35847;SDS011;22332;51.954;20.118;2024-02-21T01:54:34;15.20;;;7.40;;
35847;SDS011;22332;51.954;20.118;2024-02-21T01:57:40;15.80;;;7.70;;
35847;SDS011;22332;51.954;20.118;2024-02-21T02:00:50;14.90;;;7.60;;
35847;SDS011;22332;51.954;20.118;2024-02-21T02:03:56;14.50;;;7.70;;
35847;SDS011;22332;51.954;20.118;2024-02-21T02:07:03;17.80;;;8.20;;
35847;SDS011;22332;51.954;20.118;2024-02-21T02:10:10;20.30;;;8.60;;
35847;SDS011;22332;51.954;20.118;2024-02-21T02:13:16;14.00;;;7.50;;
35847;SDS011;22332;51.954;20.118;2024-02-21T02:16:21;16.40;;;7.80;;
35847;SDS011;22332;51.954;20.118;2024-02-21T02:19:27;15.50;;;8.50;;
35847;SDS011;22332;51.954;20.118;2024-02-21T02:22:33;20.10;;;9.80;;
35847;SDS011;22332;51.954;20.118;2024-02-21T02:25:42;19.00;;;9.10;;
35847;SDS011;22332;51.954;20.118;2024-02-21T02:28:51;19.20;;;9.60;;
35847;SDS011;22332;51.954;20.118;2024-02-21T02:31:57;16.10;;;8.00;;
35847;SDS011;22332;51.954;20.118;2024-02-21T02:35:03;16.10;;;8.00;;
35847;SDS011;22332;51.954;20.118;2024-02-21T02:38:09;16.70;;;8.60;;
35847;SDS011;22332;51.954;20.118;2024-02-21T02:41:16;17.50;;;9.00;;
35847;SDS011;22332;51.954;20.118;2024-02-21T02:44:21;17.60;;;9.00;;
35847;SDS011;22332;51.954;20.118;2024-02-21T02:47:27;20.40;;;9.50;;
35847;SDS011;22332;51.954;20.118;2024-02-21T02:50:32;19.20;;;9.70;;
35847;SDS011;22332;51.954;20.118;2024-02-21T02:53:38;16.00;;;7.40;;
35847;SDS011;22332;51.954;20.118;2024-02-21T02:56:43;14.70;;;7.80;;
35847;SDS011;22332;51.954;20.118;2024-02-21T02:59:49;17.70;;;8.90;;
35847;SDS011;22332;51.954;20.118;2024-02-21T03:02:55;23.00;;;10.80;;
35847;SDS011;22332;51.954;20.118;2024-02-21T03:06:01;18.40;;;10.00;;
35847;SDS011;22332;51.954;20.118;2024-02-21T03:09:07;19.90;;;10.70;;
35847;SDS011;22332;51.954;20.118;2024-02-21T03:12:12;21.20;;;10.20;;
35847;SDS011;22332;51.954;20.118;2024-02-21T03:15:26;15.80;;;8.60;;
35847;SDS011;22332;51.954;20.118;2024-02-21T03:18:32;16.00;;;8.10;;
35847;SDS011;22332;51.954;20.118;2024-02-21T03:21:38;17.90;;;9.50;;
35847;SDS011;22332;51.954;20.118;2024-02-21T03:24:44;21.40;;;9.80;;
35847;SDS011;22332;51.954;20.118;2024-02-21T03:27:49;18.70;;;10.30;;
35847;SDS011;22332;51.954;20.118;2024-02-21T03:30:55;18.80;;;10.20;;
35847;SDS011;22332;51.954;20.118;2024-02-21T03:34:01;18.30;;;9.60;;
35847;SDS011;22332;51.954;20.118;2024-02-21T03:37:06;15.20;;;8.00;;
35847;SDS011;22332;51.954;20.118;2024-02-21T03:40:12;16.60;;;8.30;;
35847;SDS011;22332;51.954;20.118;2024-02-21T03:43:18;20.30;;;8.60;;
35847;SDS011;22332;51.954;20.118;2024-02-21T03:46:25;17.00;;;8.90;;
35847;SDS011;22332;51.954;20.118;2024-02-21T03:49:30;16.40;;;9.00;;
35847;SDS011;22332;51.954;20.118;2024-02-21T03:52:36;14.10;;;8.80;;
35847;SDS011;22332;51.954;20.118;2024-02-21T03:55:41;19.90;;;9.80;;
35847;SDS011;22332;51.954;20.118;2024-02-21T03:58:47;17.40;;;8.20;;
35847;SDS011;22332;51.954;20.118;2024-02-21T04:01:52;37.40;;;16.70;;
35847;SDS011;22332;51.954;20.118;2024-02-21T04:04:58;27.20;;;13.50;;
35847;SDS011;22332;51.954;20.118;2024-02-21T04:08:04;50.30;;;21.10;;
35847;SDS011;22332;51.954;20.118;2024-02-21T04:11:10;80.60;;;30.00;;
35847;SDS011;22332;51.954;20.118;2024-02-21T04:14:16;70.70;;;26.20;;
35847;SDS011;22332;51.954;20.118;2024-02-21T04:17:21;47.10;;;19.80;;
35847;SDS011;22332;51.954;20.118;2024-02-21T04:20:27;48.30;;;19.20;;
35847;SDS011;22332;51.954;20.118;2024-02-21T04:23:33;110.90;;;65.70;;
35847;SDS011;22332;51.954;20.118;2024-02-21T04:26:39;26.90;;;15.50;;
35847;SDS011;22332;51.954;20.118;2024-02-21T04:29:46;21.20;;;11.30;;
35847;SDS011;22332;51.954;20.118;2024-02-21T04:32:52;24.00;;;10.70;;
35847;SDS011;22332;51.954;20.118;2024-02-21T04:35:57;23.10;;;12.30;;
35847;SDS011;22332;51.954;20.118;2024-02-21T04:39:03;24.40;;;13.30;;
35847;SDS011;22332;51.954;20.118;2024-02-21T04:42:08;20.70;;;13.60;;
35847;SDS011;22332;51.954;20.118;2024-02-21T04:45:14;26.10;;;15.80;;
35847;SDS011;22332;51.954;20.118;2024-02-21T04:48:20;19.50;;;11.30;;
35847;SDS011;22332;51.954;20.118;2024-02-21T04:51:25;18.70;;;10.20;;
35847;SDS011;22332;51.954;20.118;2024-02-21T04:54:31;20.00;;;10.70;;
35847;SDS011;22332;51.954;20.118;2024-02-21T04:57:38;17.20;;;9.70;;
35847;SDS011;22332;51.954;20.118;2024-02-21T05:00:43;20.70;;;11.10;;
35847;SDS011;22332;51.954;20.118;2024-02-21T05:03:49;21.10;;;13.00;;
35847;SDS011;22332;51.954;20.118;2024-02-21T05:06:54;18.70;;;10.90;;
35847;SDS011;22332;51.954;20.118;2024-02-21T05:10:00;22.40;;;11.90;;
35847;SDS011;22332;51.954;20.118;2024-02-21T05:13:06;18.20;;;9.40;;
35847;SDS011;22332;51.954;20.118;2024-02-21T05:16:11;27.10;;;11.30;;
35847;SDS011;22332;51.954;20.118;2024-02-21T05:19:17;22.60;;;11.10;;
35847;SDS011;22332;51.954;20.118;2024-02-21T05:22:22;23.20;;;13.00;;
35847;SDS011;22332;51.954;20.118;2024-02-21T05:25:28;35.40;;;20.10;;
35847;SDS011;22332;51.954;20.118;2024-02-21T05:28:34;32.10;;;15.70;;
35847;SDS011;22332;51.954;20.118;2024-02-21T05:35:01;22.80;;;12.90;;
35847;SDS011;22332;51.954;20.118;2024-02-21T05:38:07;25.30;;;14.60;;
35847;SDS011;22332;51.954;20.118;2024-02-21T05:41:14;37.70;;;21.60;;
35847;SDS011;22332;51.954;20.118;2024-02-21T05:44:20;87.40;;;41.50;;
35847;SDS011;22332;51.954;20.118;2024-02-21T05:47:25;97.00;;;51.70;;
35847;SDS011;22332;51.954;20.118;2024-02-21T05:50:31;46.70;;;26.50;;
35847;SDS011;22332;51.954;20.118;2024-02-21T05:53:37;29.00;;;15.40;;
35847;SDS011;22332;51.954;20.118;2024-02-21T05:56:45;30.90;;;16.20;;
35847;SDS011;22332;51.954;20.118;2024-02-21T05:59:50;30.10;;;18.40;;
35847;SDS011;22332;51.954;20.118;2024-02-21T06:02:56;29.70;;;16.00;;
35847;SDS011;22332;51.954;20.118;2024-02-21T06:06:02;31.30;;;16.30;;
35847;SDS011;22332;51.954;20.118;2024-02-21T06:09:08;30.00;;;17.00;;
35847;SDS011;22332;51.954;20.118;2024-02-21T06:12:14;28.10;;;14.70;;
35847;SDS011;22332;51.954;20.118;2024-02-21T06:15:19;23.50;;;12.00;;
35847;SDS011;22332;51.954;20.118;2024-02-21T06:18:25;24.60;;;13.00;;
35847;SDS011;22332;51.954;20.118;2024-02-21T06:21:31;30.40;;;16.30;;
35847;SDS011;22332;51.954;20.118;2024-02-21T06:24:36;24.90;;;14.20;;
35847;SDS011;22332;51.954;20.118;2024-02-21T06:27:42;25.60;;;14.80;;
35847;SDS011;22332;51.954;20.118;2024-02-21T06:30:48;35.20;;;20.60;;
35847;SDS011;22332;51.954;20.118;2024-02-21T06:33:54;28.30;;;18.40;;
35847;SDS011;22332;51.954;20.118;2024-02-21T06:37:00;23.10;;;12.30;;
35847;SDS011;22332;51.954;20.118;2024-02-21T06:40:07;41.60;;;22.90;;
35847;SDS011;22332;51.954;20.118;2024-02-21T06:43:13;36.90;;;21.00;;
35847;SDS011;22332;51.954;20.118;2024-02-21T06:46:25;35.90;;;17.40;;
35847;SDS011;22332;51.954;20.118;2024-02-21T06:49:32;31.50;;;16.30;;
35847;SDS011;22332;51.954;20.118;2024-02-21T06:52:38;51.10;;;26.20;;
35847;SDS011;22332;51.954;20.118;2024-02-21T06:55:43;735.80;;;398.50;;
35847;SDS011;22332;51.954;20.118;2024-02-21T06:58:49;438.40;;;183.70;;
35847;SDS011;22332;51.954;20.118;2024-02-21T07:01:55;173.20;;;69.60;;
35847;SDS011;22332;51.954;20.118;2024-02-21T07:05:00;77.40;;;33.40;;
35847;SDS011;22332;51.954;20.118;2024-02-21T07:08:06;109.20;;;45.40;;
35847;SDS011;22332;51.954;20.118;2024-02-21T07:11:12;80.20;;;36.00;;
35847;SDS011;22332;51.954;20.118;2024-02-21T07:14:17;109.20;;;48.00;;
35847;SDS011;22332;51.954;20.118;2024-02-21T07:17:23;75.50;;;38.50;;
35847;SDS011;22332;51.954;20.118;2024-02-21T07:20:29;54.50;;;32.70;;
35847;SDS011;22332;51.954;20.118;2024-02-21T07:23:36;58.00;;;32.50;;
35847;SDS011;22332;51.954;20.118;2024-02-21T07:26:44;34.10;;;16.80;;
35847;SDS011;22332;51.954;20.118;2024-02-21T07:29:49;70.60;;;41.50;;
35847;SDS011;22332;51.954;20.118;2024-02-21T07:32:55;54.70;;;30.10;;
35847;SDS011;22332;51.954;20.118;2024-02-21T07:36:00;88.50;;;54.00;;
35847;SDS011;22332;51.954;20.118;2024-02-21T07:39:09;42.70;;;25.40;;
35847;SDS011;22332;51.954;20.118;2024-02-21T07:42:15;32.70;;;17.80;;
35847;SDS011;22332;51.954;20.118;2024-02-21T07:45:20;28.30;;;13.70;;
35847;SDS011;22332;51.954;20.118;2024-02-21T07:48:27;25.30;;;12.40;;
35847;SDS011;22332;51.954;20.118;2024-02-21T07:51:39;27.70;;;13.20;;
35847;SDS011;22332;51.954;20.118;2024-02-21T07:54:45;26.60;;;13.80;;
35847;SDS011;22332;51.954;20.118;2024-02-21T07:57:55;27.50;;;15.30;;
35847;SDS011;22332;51.954;20.118;2024-02-21T08:01:01;56.60;;;28.10;;
35847;SDS011;22332;51.954;20.118;2024-02-21T08:04:07;245.40;;;92.70;;
35847;SDS011;22332;51.954;20.118;2024-02-21T08:07:12;68.60;;;28.50;;
35847;SDS011;22332;51.954;20.118;2024-02-21T08:10:18;89.60;;;35.90;;
35847;SDS011;22332;51.954;20.118;2024-02-21T08:13:24;134.40;;;54.10;;
35847;SDS011;22332;51.954;20.118;2024-02-21T08:16:31;124.50;;;49.30;;
35847;SDS011;22332;51.954;20.118;2024-02-21T08:19:37;209.60;;;79.80;;
35847;SDS011;22332;51.954;20.118;2024-02-21T08:22:42;100.30;;;39.30;;
35847;SDS011;22332;51.954;20.118;2024-02-21T08:25:47;58.50;;;26.20;;
35847;SDS011;22332;51.954;20.118;2024-02-21T08:28:53;122.60;;;51.90;;
35847;SDS011;22332;51.954;20.118;2024-02-21T08:32:01;52.20;;;23.00;;
35847;SDS011;22332;51.954;20.118;2024-02-21T08:35:07;197.20;;;84.30;;
35847;SDS011;22332;51.954;20.118;2024-02-21T08:38:13;90.00;;;41.40;;
35847;SDS011;22332;51.954;20.118;2024-02-21T08:41:19;40.20;;;19.80;;
35847;SDS011;22332;51.954;20.118;2024-02-21T08:44:27;83.60;;;43.10;;
35847;SDS011;22332;51.954;20.118;2024-02-21T08:47:32;84.30;;;43.40;;
35847;SDS011;22332;51.954;20.118;2024-02-21T08:50:39;49.30;;;26.50;;
35847;SDS011;22332;51.954;20.118;2024-02-21T08:53:44;72.90;;;37.60;;
35847;SDS011;22332;51.954;20.118;2024-02-21T08:56:50;25.50;;;14.50;;
35847;SDS011;22332;51.954;20.118;2024-02-21T08:59:56;21.30;;;12.80;;
35847;SDS011;22332;51.954;20.118;2024-02-21T09:03:02;28.40;;;18.50;;
35847;SDS011;22332;51.954;20.118;2024-02-21T09:06:09;31.20;;;21.90;;
35847;SDS011;22332;51.954;20.118;2024-02-21T09:09:15;22.40;;;13.50;;
35847;SDS011;22332;51.954;20.118;2024-02-21T09:12:21;24.80;;;15.00;;
35847;SDS011;22332;51.954;20.118;2024-02-21T09:15:27;39.30;;;26.80;;
35847;SDS011;22332;51.954;20.118;2024-02-21T09:18:33;20.90;;;13.10;;
35847;SDS011;22332;51.954;20.118;2024-02-21T09:21:38;22.00;;;13.10;;
35847;SDS011;22332;51.954;20.118;2024-02-21T09:24:44;20.30;;;12.00;;
35847;SDS011;22332;51.954;20.118;2024-02-21T09:27:51;21.50;;;12.40;;
35847;SDS011;22332;51.954;20.118;2024-02-21T09:30:57;29.30;;;20.30;;
35847;SDS011;22332;51.954;20.118;2024-02-21T09:34:03;19.20;;;13.50;;
35847;SDS011;22332;51.954;20.118;2024-02-21T09:37:08;22.70;;;14.20;;
35847;SDS011;22332;51.954;20.118;2024-02-21T09:40:14;25.80;;;13.30;;
35847;SDS011;22332;51.954;20.118;2024-02-21T09:43:20;21.00;;;12.00;;
35847;SDS011;22332;51.954;20.118;2024-02-21T09:46:29;20.50;;;11.20;;
35847;SDS011;22332;51.954;20.118;2024-02-21T09:49:48;20.40;;;12.60;;
35847;SDS011;22332;51.954;20.118;2024-02-21T09:52:53;19.90;;;12.10;;
35847;SDS011;22332;51.954;20.118;2024-02-21T09:56:01;19.60;;;12.20;;
35847;SDS011;22332;51.954;20.118;2024-02-21T09:59:09;22.90;;;12.90;;
35847;SDS011;22332;51.954;20.118;2024-02-21T10:02:15;22.50;;;11.70;;
35847;SDS011;22332;51.954;20.118;2024-02-21T10:05:20;21.50;;;11.00;;
35847;SDS011;22332;51.954;20.118;2024-02-21T10:08:28;17.80;;;10.70;;
35847;SDS011;22332;51.954;20.118;2024-02-21T10:11:34;19.50;;;11.00;;
35847;SDS011;22332;51.954;20.118;2024-02-21T10:14:40;17.60;;;10.80;;
35847;SDS011;22332;51.954;20.118;2024-02-21T10:17:46;21.40;;;11.40;;
35847;SDS011;22332;51.954;20.118;2024-02-21T10:21:00;19.00;;;11.60;;
35847;SDS011;22332;51.954;20.118;2024-02-21T10:24:07;17.30;;;10.90;;
35847;SDS011;22332;51.954;20.118;2024-02-21T10:27:14;19.70;;;9.90;;
35847;SDS011;22332;51.954;20.118;2024-02-21T10:30:20;20.00;;;9.80;;
35847;SDS011;22332;51.954;20.118;2024-02-21T10:33:26;18.30;;;9.10;;
35847;SDS011;22332;51.954;20.118;2024-02-21T10:36:34;43.90;;;23.30;;
35847;SDS011;22332;51.954;20.118;2024-02-21T10:39:40;33.20;;;16.00;;
35847;SDS011;22332;51.954;20.118;2024-02-21T10:42:47;28.30;;;14.70;;
35847;SDS011;22332;51.954;20.118;2024-02-21T10:45:57;87.20;;;40.80;;
35847;SDS011;22332;51.954;20.118;2024-02-21T10:49:10;181.40;;;74.10;;
35847;SDS011;22332;51.954;20.118;2024-02-21T10:52:21;118.20;;;53.00;;
35847;SDS011;22332;51.954;20.118;2024-02-21T10:55:37;49.30;;;22.50;;
35847;SDS011;22332;51.954;20.118;2024-02-21T10:58:48;276.60;;;119.70;;
35847;SDS011;22332;51.954;20.118;2024-02-21T11:01:53;56.30;;;27.10;;
35847;SDS011;22332;51.954;20.118;2024-02-21T11:04:59;79.10;;;37.40;;
35847;SDS011;22332;51.954;20.118;2024-02-21T11:08:07;78.40;;;38.50;;
35847;SDS011;22332;51.954;20.118;2024-02-21T11:11:13;28.60;;;15.20;;
35847;SDS011;22332;51.954;20.118;2024-02-21T11:14:21;41.60;;;24.00;;
35847;SDS011;22332;51.954;20.118;2024-02-21T11:17:30;38.20;;;20.50;;
35847;SDS011;22332;51.954;20.118;2024-02-21T11:20:36;49.40;;;28.30;;
35847;SDS011;22332;51.954;20.118;2024-02-21T11:23:42;97.70;;;53.60;;
35847;SDS011;22332;51.954;20.118;2024-02-21T11:27:07;49.80;;;25.90;;
35847;SDS011;22332;51.954;20.118;2024-02-21T11:30:15;33.20;;;18.40;;
35847;SDS011;22332;51.954;20.118;2024-02-21T11:33:25;89.70;;;38.60;;
35847;SDS011;22332;51.954;20.118;2024-02-21T11:36:31;193.40;;;79.40;;
35847;SDS011;22332;51.954;20.118;2024-02-21T11:39:37;153.70;;;58.80;;
35847;SDS011;22332;51.954;20.118;2024-02-21T11:42:44;224.10;;;90.90;;
35847;SDS011;22332;51.954;20.118;2024-02-21T11:45:50;389.10;;;181.40;;
35847;SDS011;22332;51.954;20.118;2024-02-21T11:49:02;260.40;;;110.10;;
35847;SDS011;22332;51.954;20.118;2024-02-21T11:52:07;490.30;;;221.20;;
35847;SDS011;22332;51.954;20.118;2024-02-21T11:55:13;314.10;;;128.20;;
35847;SDS011;22332;51.954;20.118;2024-02-21T11:58:18;126.60;;;57.80;;
35847;SDS011;22332;51.954;20.118;2024-02-21T12:01:24;288.10;;;132.10;;
35847;SDS011;22332;51.954;20.118;2024-02-21T12:04:30;141.60;;;66.70;;
35847;SDS011;22332;51.954;20.118;2024-02-21T12:07:37;241.70;;;122.40;;
35847;SDS011;22332;51.954;20.118;2024-02-21T12:19:55;44.10;;;32.10;;
35847;SDS011;22332;51.954;20.118;2024-02-21T12:23:03;25.40;;;16.90;;
35847;SDS011;22332;51.954;20.118;2024-02-21T12:26:12;22.40;;;14.70;;
35847;SDS011;22332;51.954;20.118;2024-02-21T12:29:18;17.10;;;9.60;;
35847;SDS011;22332;51.954;20.118;2024-02-21T12:32:24;19.00;;;10.60;;
35847;SDS011;22332;51.954;20.118;2024-02-21T12:35:29;15.80;;;8.90;;
35847;SDS011;22332;51.954;20.118;2024-02-21T12:38:36;14.70;;;8.70;;
35847;SDS011;22332;51.954;20.118;2024-02-21T12:41:42;15.60;;;7.40;;
35847;SDS011;22332;51.954;20.118;2024-02-21T12:44:47;14.50;;;7.00;;
35847;SDS011;22332;51.954;20.118;2024-02-21T12:47:53;13.10;;;6.40;;
35847;SDS011;22332;51.954;20.118;2024-02-21T12:50:59;15.00;;;6.30;;
35847;SDS011;22332;51.954;20.118;2024-02-21T12:54:05;11.50;;;6.50;;
35847;SDS011;22332;51.954;20.118;2024-02-21T12:57:14;13.60;;;6.70;;
35847;SDS011;22332;51.954;20.118;2024-02-21T13:00:20;12.20;;;6.00;;
35847;SDS011;22332;51.954;20.118;2024-02-21T13:03:29;11.30;;;6.00;;
35847;SDS011;22332;51.954;20.118;2024-02-21T13:06:34;10.80;;;5.80;;
35847;SDS011;22332;51.954;20.118;2024-02-21T13:09:40;10.30;;;5.40;;
35847;SDS011;22332;51.954;20.118;2024-02-21T13:12:45;11.90;;;5.40;;
35847;SDS011;22332;51.954;20.118;2024-02-21T13:15:51;10.20;;;5.80;;
35847;SDS011;22332;51.954;20.118;2024-02-21T13:18:57;12.90;;;6.30;;
35847;SDS011;22332;51.954;20.118;2024-02-21T13:22:03;12.40;;;6.60;;
35847;SDS011;22332;51.954;20.118;2024-02-21T13:25:09;12.00;;;6.90;;
35847;SDS011;22332;51.954;20.118;2024-02-21T13:28:18;17.90;;;8.30;;
35847;SDS011;22332;51.954;20.118;2024-02-21T13:31:23;15.10;;;7.00;;
35847;SDS011;22332;51.954;20.118;2024-02-21T13:34:29;14.00;;;6.70;;
35847;SDS011;22332;51.954;20.118;2024-02-21T13:37:35;12.10;;;6.90;;
35847;SDS011;22332;51.954;20.118;2024-02-21T13:40:40;15.00;;;6.90;;
35847;SDS011;22332;51.954;20.118;2024-02-21T13:43:46;13.50;;;6.70;;
35847;SDS011;22332;51.954;20.118;2024-02-21T13:46:51;13.90;;;7.70;;
35847;SDS011;22332;51.954;20.118;2024-02-21T13:49:57;11.00;;;7.20;;
35847;SDS011;22332;51.954;20.118;2024-02-21T13:53:03;13.70;;;6.60;;
35847;SDS011;22332;51.954;20.118;2024-02-21T13:56:08;12.00;;;5.80;;
35847;SDS011;22332;51.954;20.118;2024-02-21T13:59:15;14.00;;;6.70;;
35847;SDS011;22332;51.954;20.118;2024-02-21T14:02:21;11.00;;;6.30;;
35847;SDS011;22332;51.954;20.118;2024-02-21T14:05:26;15.10;;;6.60;;
35847;SDS011;22332;51.954;20.118;2024-02-21T14:08:33;14.20;;;7.00;;
35847;SDS011;22332;51.954;20.118;2024-02-21T14:11:39;13.10;;;6.30;;
35847;SDS011;22332;51.954;20.118;2024-02-21T14:14:45;12.50;;;6.40;;
35847;SDS011;22332;51.954;20.118;2024-02-21T14:17:51;12.60;;;6.70;;
35847;SDS011;22332;51.954;20.118;2024-02-21T14:20:58;13.50;;;6.30;;
35847;SDS011;22332;51.954;20.118;2024-02-21T14:24:03;12.40;;;6.60;;
35847;SDS011;22332;51.954;20.118;2024-02-21T14:27:10;13.00;;;6.40;;
35847;SDS011;22332;51.954;20.118;2024-02-21T14:30:16;15.00;;;6.90;;
35847;SDS011;22332;51.954;20.118;2024-02-21T14:33:22;13.10;;;7.30;;
35847;SDS011;22332;51.954;20.118;2024-02-21T14:36:28;13.60;;;6.60;;
35847;SDS011;22332;51.954;20.118;2024-02-21T14:39:39;14.10;;;6.20;;
35847;SDS011;22332;51.954;20.118;2024-02-21T14:42:44;11.40;;;6.00;;
35847;SDS011;22332;51.954;20.118;2024-02-21T14:45:50;12.20;;;6.00;;
35847;SDS011;22332;51.954;20.118;2024-02-21T14:48:56;10.60;;;5.80;;
35847;SDS011;22332;51.954;20.118;2024-02-21T14:52:01;10.50;;;6.20;;
35847;SDS011;22332;51.954;20.118;2024-02-21T14:55:07;12.20;;;6.50;;
35847;SDS011;22332;51.954;20.118;2024-02-21T14:58:15;10.50;;;6.20;;
35847;SDS011;22332;51.954;20.118;2024-02-21T15:01:22;13.10;;;6.70;;
35847;SDS011;22332;51.954;20.118;2024-02-21T15:04:27;12.10;;;5.60;;
35847;SDS011;22332;51.954;20.118;2024-02-21T15:07:33;12.90;;;6.60;;
35847;SDS011;22332;51.954;20.118;2024-02-21T15:10:39;12.90;;;6.40;;
35847;SDS011;22332;51.954;20.118;2024-02-21T15:13:45;14.50;;;6.60;;
35847;SDS011;22332;51.954;20.118;2024-02-21T15:16:50;12.10;;;6.80;;
35847;SDS011;22332;51.954;20.118;2024-02-21T15:19:56;11.50;;;6.70;;
35847;SDS011;22332;51.954;20.118;2024-02-21T15:23:03;12.80;;;7.00;;
35847;SDS011;22332;51.954;20.118;2024-02-21T15:26:08;11.20;;;5.70;;
35847;SDS011;22332;51.954;20.118;2024-02-21T15:29:14;15.80;;;7.40;;
35847;SDS011;22332;51.954;20.118;2024-02-21T15:32:19;13.20;;;6.90;;
35847;SDS011;22332;51.954;20.118;2024-02-21T15:35:25;13.00;;;7.20;;
35847;SDS011;22332;51.954;20.118;2024-02-21T15:38:30;10.70;;;6.20;;
35847;SDS011;22332;51.954;20.118;2024-02-21T15:41:36;11.90;;;6.50;;
35847;SDS011;22332;51.954;20.118;2024-02-21T15:44:41;11.70;;;6.20;;
35847;SDS011;22332;51.954;20.118;2024-02-21T15:47:47;10.70;;;5.50;;
35847;SDS011;22332;51.954;20.118;2024-02-21T15:50:53;13.10;;;6.30;;
35847;SDS011;22332;51.954;20.118;2024-02-21T15:53:59;11.30;;;6.70;;
35847;SDS011;22332;51.954;20.118;2024-02-21T15:57:05;12.40;;;6.70;;
35847;SDS011;22332;51.954;20.118;2024-02-21T16:00:11;12.80;;;6.60;;
35847;SDS011;22332;51.954;20.118;2024-02-21T16:03:17;11.90;;;6.50;;
35847;SDS011;22332;51.954;20.118;2024-02-21T16:06:24;11.10;;;6.50;;
35847;SDS011;22332;51.954;20.118;2024-02-21T16:09:31;10.90;;;5.30;;
35847;SDS011;22332;51.954;20.118;2024-02-21T16:12:36;10.70;;;6.10;;
35847;SDS011;22332;51.954;20.118;2024-02-21T16:15:43;11.70;;;5.60;;
35847;SDS011;22332;51.954;20.118;2024-02-21T16:18:51;10.20;;;6.60;;
35847;SDS011;22332;51.954;20.118;2024-02-21T16:21:57;13.20;;;6.70;;
35847;SDS011;22332;51.954;20.118;2024-02-21T16:25:03;11.10;;;6.90;;
35847;SDS011;22332;51.954;20.118;2024-02-21T16:28:09;14.00;;;6.20;;
35847;SDS011;22332;51.954;20.118;2024-02-21T16:31:15;10.80;;;5.90;;
35847;SDS011;22332;51.954;20.118;2024-02-21T16:34:21;13.30;;;6.60;;
35847;SDS011;22332;51.954;20.118;2024-02-21T16:37:27;12.60;;;7.30;;
35847;SDS011;22332;51.954;20.118;2024-02-21T16:40:33;12.00;;;7.30;;
35847;SDS011;22332;51.954;20.118;2024-02-21T16:43:39;12.40;;;6.90;;
35847;SDS011;22332;51.954;20.118;2024-02-21T16:46:45;14.30;;;7.60;;
35847;SDS011;22332;51.954;20.118;2024-02-21T16:49:51;12.60;;;7.70;;
35847;SDS011;22332;51.954;20.118;2024-02-21T16:52:56;15.90;;;7.80;;
35847;SDS011;22332;51.954;20.118;2024-02-21T16:56:02;12.20;;;7.00;;
35847;SDS011;22332;51.954;20.118;2024-02-21T16:59:08;14.30;;;8.10;;
35847;SDS011;22332;51.954;20.118;2024-02-21T17:02:14;16.80;;;9.40;;
35847;SDS011;22332;51.954;20.118;2024-02-21T17:05:21;16.00;;;9.30;;
35847;SDS011;22332;51.954;20.118;2024-02-21T17:08:27;17.30;;;9.20;;
35847;SDS011;22332;51.954;20.118;2024-02-21T17:11:35;19.30;;;10.10;;
35847;SDS011;22332;51.954;20.118;2024-02-21T17:14:42;16.90;;;9.50;;
35847;SDS011;22332;51.954;20.118;2024-02-21T17:17:48;15.70;;;8.70;;
35847;SDS011;22332;51.954;20.118;2024-02-21T17:20:53;14.80;;;8.10;;
35847;SDS011;22332;51.954;20.118;2024-02-21T17:24:00;19.60;;;10.50;;
35847;SDS011;22332;51.954;20.118;2024-02-21T17:27:06;19.30;;;10.10;;
35847;SDS011;22332;51.954;20.118;2024-02-21T17:30:12;20.90;;;11.80;;
35847;SDS011;22332;51.954;20.118;2024-02-21T17:33:18;17.80;;;10.40;;
35847;SDS011;22332;51.954;20.118;2024-02-21T17:36:24;17.30;;;10.90;;
35847;SDS011;22332;51.954;20.118;2024-02-21T17:39:29;15.60;;;9.30;;
35847;SDS011;22332;51.954;20.118;2024-02-21T17:42:35;14.00;;;8.10;;
35847;SDS011;22332;51.954;20.118;2024-02-21T17:45:41;17.00;;;9.50;;
35847;SDS011;22332;51.954;20.118;2024-02-21T17:48:47;18.10;;;10.00;;
35847;SDS011;22332;51.954;20.118;2024-02-21T17:51:52;16.30;;;10.30;;
35847;SDS011;22332;51.954;20.118;2024-02-21T17:54:59;17.00;;;10.20;;
35847;SDS011;22332;51.954;20.118;2024-02-21T17:58:07;16.10;;;10.10;;
35847;SDS011;22332;51.954;20.118;2024-02-21T18:01:12;14.90;;;8.90;;
35847;SDS011;22332;51.954;20.118;2024-02-21T18:04:18;18.30;;;10.70;;
35847;SDS011;22332;51.954;20.118;2024-02-21T18:07:24;18.90;;;10.60;;
35847;SDS011;22332;51.954;20.118;2024-02-21T18:10:29;20.30;;;10.90;;
35847;SDS011;22332;51.954;20.118;2024-02-21T18:13:35;18.60;;;11.30;;